Time;durP1;ratioP1;P1;durP2;ratioP2;P2;SDS_P1;SDS_P2;PMS_P1;PMS_P2;Temp;Humidity;BMP_temperature;BMP_pressure;BME280_temperature;BME280_humidity;BME280_pressure;Samples;Min_cycle;Max_cycle;Signal;HPM_P1;HPM_P2
2021/10/07 00:01:23;;;;;;;21.20;10.00;;;;;;;16.82;42.46;102814.08;1697684;84;21082;-49
2021/10/07 00:03:52;;;;;;;21.65;9.65;;;;;;;16.81;42.61;102798.77;1772137;80;20971;-53
2021/10/07 00:06:19;;;;;;;19.77;9.65;;;;;;;16.80;42.71;102808.84;1768811;80;21478;-50
2021/10/07 00:08:48;;;;;;;21.10;9.73;;;;;;;16.79;42.99;102804.49;1766323;80;21041;-52
2021/10/07 00:11:16;;;;;;;23.62;10.08;;;;;;;16.79;42.97;102803.62;1765999;80;21076;-48
2021/10/07 00:13:43;;;;;;;21.40;9.23;;;;;;;16.79;42.83;102803.62;1767839;80;21072;-51
2021/10/07 00:16:11;;;;;;;26.42;8.80;;;;;;;16.78;42.82;102799.23;1768631;80;21029;-51
2021/10/07 00:18:40;;;;;;;23.18;9.48;;;;;;;16.78;42.79;102804.49;1767524;80;21026;-48
2021/10/07 00:21:07;;;;;;;18.27;9.08;;;;;;;16.76;42.94;102791.38;1767417;80;21025;-49
2021/10/07 00:23:40;;;;;;;18.73;9.10;;;;;;;16.75;43.07;102790.09;1766303;80;20986;-47
2021/10/07 00:26:02;;;;;;;22.87;9.38;;;;;;;16.74;43.08;102792.28;1763517;80;21037;-48
2021/10/07 00:28:32;;;;;;;18.42;8.90;;;;;;;16.72;42.86;102788.81;1769476;80;20994;-47
2021/10/07 00:31:00;;;;;;;24.23;9.30;;;;;;;16.70;43.15;102786.66;1769779;80;21028;-50
2021/10/07 00:36:14;;;;;;;27.10;9.35;;;;;;;16.69;43.27;102792.34;1719518;83;21038;-47
2021/10/07 00:41:23;;;;;;;16.67;8.98;;;;;;;16.68;43.21;102780.11;1722851;83;21001;-47
2021/10/07 00:43:50;;;;;;;20.48;8.95;;;;;;;16.66;42.94;102789.78;1722771;83;21084;-53
2021/10/07 00:46:17;;;;;;;17.55;8.93;;;;;;;16.62;43.07;102788.53;1722945;83;21615;-50
2021/10/07 00:48:44;;;;;;;19.32;8.23;;;;;;;16.63;43.40;102786.34;1722578;83;20990;-52
2021/10/07 00:51:11;;;;;;;18.40;9.23;;;;;;;16.61;43.53;102786.34;1722947;83;21057;-50
2021/10/07 00:53:38;;;;;;;20.45;9.33;;;;;;;16.61;43.63;102786.34;1722870;83;21522;-51
2021/10/07 00:56:05;;;;;;;20.60;9.50;;;;;;;16.61;43.52;102786.81;1722992;83;20982;-52
2021/10/07 00:58:32;;;;;;;18.82;9.53;;;;;;;16.60;43.74;102789.00;1722875;83;21547;-50
2021/10/07 01:00:59;;;;;;;23.30;9.33;;;;;;;16.59;43.57;102789.91;1727389;83;21044;-51
2021/10/07 01:03:28;;;;;;;18.85;9.23;;;;;;;16.60;43.57;102783.73;1729896;83;21064;-51
2021/10/07 01:05:55;;;;;;;16.70;8.48;;;;;;;16.58;43.62;102784.20;1729616;83;21020;-47
2021/10/07 01:08:22;;;;;;;19.23;9.05;;;;;;;16.57;43.81;102783.80;1729717;83;21549;-51
2021/10/07 01:10:49;;;;;;;24.55;9.75;;;;;;;16.55;43.79;102780.33;1729660;83;21018;-49
2021/10/07 01:13:16;;;;;;;16.65;8.38;;;;;;;16.55;43.96;102788.22;1750994;80;21509;-53
2021/10/07 01:15:43;;;;;;;20.88;8.83;;;;;;;16.54;44.00;102783.83;1776304;80;21001;-47
2021/10/07 01:18:10;;;;;;;23.12;10.00;;;;;;;16.54;44.06;102779.89;1776345;80;21008;-51
2021/10/07 01:20:37;;;;;;;18.85;10.50;;;;;;;16.53;44.49;102777.70;1778272;80;20981;-51
2021/10/07 01:23:04;;;;;;;28.92;9.98;;;;;;;16.53;44.29;102782.08;1779694;80;21029;-47
2021/10/07 01:25:34;;;;;;;15.85;11.12;;;;;;;16.53;44.29;102780.77;1779497;80;21013;-51
2021/10/07 01:28:00;;;;;;;17.60;10.60;;;;;;;16.51;44.45;102775.98;1779543;80;21550;-48
2021/10/07 01:30:27;;;;;;;21.27;11.60;;;;;;;16.48;44.03;102774.25;1779343;80;21549;-52
2021/10/07 01:32:56;;;;;;;21.40;11.20;;;;;;;16.46;43.83;102775.16;1777978;80;21072;-47
2021/10/07 01:35:24;;;;;;;18.70;11.63;;;;;;;16.44;43.64;102767.73;1776549;80;21457;-48
2021/10/07 01:37:51;;;;;;;21.20;10.90;;;;;;;16.44;43.91;102766.42;1776569;80;21450;-51
2021/10/07 01:40:19;;;;;;;19.90;11.78;;;;;;;16.43;44.25;102769.93;1786255;80;21044;-50
2021/10/07 01:42:46;;;;;;;15.50;10.45;;;;;;;16.42;44.24;102768.20;1778047;80;21002;-46
2021/10/07 01:45:13;;;;;;;27.22;11.53;;;;;;;16.42;44.15;102772.15;1779620;80;21486;-49
2021/10/07 01:47:41;;;;;;;17.75;11.55;;;;;;;16.42;44.33;102768.20;1776536;80;21048;-50
2021/10/07 01:50:10;;;;;;;21.82;11.93;;;;;;;16.40;44.42;102774.80;1776853;80;21052;-50
2021/10/07 01:52:37;;;;;;;19.55;11.78;;;;;;;16.40;44.46;102775.25;1772838;80;20977;-48
2021/10/07 01:55:07;;;;;;;19.45;11.30;;;;;;;16.37;44.58;102772.64;1779512;80;21028;-50
2021/10/07 01:57:34;;;;;;;16.87;9.75;;;;;;;16.34;44.36;102778.83;1785817;80;21604;-50
2021/10/07 02:00:01;;;;;;;20.95;10.18;;;;;;;16.34;43.93;102779.27;1775638;80;20997;-48
2021/10/07 02:02:30;;;;;;;18.82;9.98;;;;;;;16.32;44.05;102774.48;1771357;80;21038;-53
2021/10/07 02:04:58;;;;;;;18.85;9.83;;;;;;;16.28;44.24;102777.14;1771323;80;21025;-47
2021/10/07 02:07:24;;;;;;;15.85;9.00;;;;;;;16.28;44.26;102781.08;1771874;80;21490;-48
2021/10/07 02:09:52;;;;;;;18.37;10.35;;;;;;;16.27;44.21;102772.78;1774110;80;21005;-51
2021/10/07 02:12:19;;;;;;;19.50;8.90;;;;;;;16.27;44.12;102775.85;1774388;80;21053;-48
2021/10/07 02:14:46;;;;;;;14.87;8.85;;;;;;;16.25;43.96;102775.87;1774449;80;21545;-51
2021/10/07 02:17:13;;;;;;;19.42;9.10;;;;;;;16.24;44.10;102775.44;1774219;80;21057;-48
2021/10/07 02:19:40;;;;;;;17.80;7.78;;;;;;;16.23;44.36;102786.85;1773909;80;21033;-52
2021/10/07 02:22:07;;;;;;;15.18;7.87;;;;;;;16.22;44.56;102778.53;1774629;80;21530;-51
2021/10/07 02:24:37;;;;;;;21.77;8.25;;;;;;;16.23;44.57;102778.09;1779473;80;20972;-50
2021/10/07 02:27:05;;;;;;;26.65;8.45;;;;;;;16.21;44.95;102775.50;1775514;80;21029;-50
2021/10/07 02:29:32;;;;;;;14.60;6.80;;;;;;;16.21;45.32;102774.19;1771240;80;21048;-51
2021/10/07 02:31:59;;;;;;;19.05;7.50;;;;;;;16.20;45.40;102775.05;1771377;80;20989;-49
2021/10/07 02:34:26;;;;;;;17.10;8.03;;;;;;;16.21;45.71;102782.06;1767442;80;21029;-50
2021/10/07 02:36:53;;;;;;;17.87;7.67;;;;;;;16.19;45.93;102774.65;1774252;80;21453;-50
2021/10/07 02:39:20;;;;;;;21.02;7.87;;;;;;;16.20;46.13;102772.87;1774469;80;21036;-48
2021/10/07 02:41:48;;;;;;;21.82;7.55;;;;;;;16.21;46.18;102791.26;1774254;80;21010;-47
2021/10/07 02:44:16;;;;;;;17.37;7.25;;;;;;;16.24;46.39;102796.45;1774478;80;21025;-48
2021/10/07 02:46:43;;;;;;;15.15;7.12;;;;;;;16.25;46.39;102803.46;1771610;80;21005;-52
2021/10/07 02:49:10;;;;;;;16.85;6.55;;;;;;;16.26;46.58;102799.05;1775595;80;21022;-47
2021/10/07 02:51:37;;;;;;;18.92;6.47;;;;;;;16.26;46.60;102795.11;1784704;80;20962;-50
2021/10/07 02:54:04;;;;;;;21.65;7.03;;;;;;;16.24;46.98;102803.02;1772061;80;21072;-51
2021/10/07 02:56:31;;;;;;;16.50;6.60;;;;;;;16.25;47.04;102798.64;1775680;80;21022;-50
2021/10/07 02:58:58;;;;;;;19.92;6.90;;;;;;;16.25;47.27;102803.46;1771221;80;21529;-50
2021/10/07 03:01:26;;;;;;;19.20;6.47;;;;;;;16.25;47.24;102802.59;1771647;80;20974;-47
2021/10/07 03:03:53;;;;;;;21.05;7.03;;;;;;;16.23;47.13;102793.42;1767329;80;21018;-48
2021/10/07 03:06:20;;;;;;;14.80;5.85;;;;;;;16.23;47.04;102798.67;1773946;80;21006;-49
2021/10/07 03:08:47;;;;;;;18.57;5.60;;;;;;;16.25;47.09;102800.84;1771223;80;21525;-48
2021/10/07 03:11:15;;;;;;;18.37;6.55;;;;;;;16.24;47.14;102800.39;1771339;80;21049;-48
2021/10/07 03:13:42;;;;;;;16.55;6.20;;;;;;;16.24;47.25;102799.08;1772918;80;21526;-49
2021/10/07 03:16:11;;;;;;;14.45;5.90;;;;;;;16.22;47.27;102800.86;1773546;80;22219;-51
2021/10/07 03:18:38;;;;;;;16.32;6.25;;;;;;;16.20;47.12;102801.33;1772070;80;21509;-48
2021/10/07 03:21:05;;;;;;;16.67;5.83;;;;;;;16.20;47.34;102807.89;1776533;80;21001;-51
2021/10/07 03:23:33;;;;;;;16.62;6.72;;;;;;;16.19;47.58;102802.23;1774592;80;21466;-50
2021/10/07 03:26:00;;;;;;;17.17;6.30;;;;;;;16.21;47.81;102808.77;1774582;80;21002;-49
2021/10/07 03:28:27;;;;;;;18.07;6.40;;;;;;;16.21;47.32;102812.27;1774341;80;21018;-50
2021/10/07 03:30:54;;;;;;;20.43;6.53;;;;;;;16.20;47.24;102806.58;1771722;80;21572;-50
2021/10/07 03:33:21;;;;;;;19.00;5.83;;;;;;;16.19;47.19;102804.86;1771226;80;21001;-48
2021/10/07 03:35:48;;;;;;;13.48;5.97;;;;;;;16.21;47.20;102814.02;1772461;80;21017;-49
2021/10/07 03:38:15;;;;;;;14.00;6.17;;;;;;;16.18;47.30;102812.30;1774001;80;21061;-48
2021/10/07 03:40:42;;;;;;;16.87;6.22;;;;;;;16.18;47.20;102813.61;1772161;80;21054;-51
2021/10/07 03:43:09;;;;;;;17.40;5.78;;;;;;;16.17;47.18;102825.45;1771667;80;21026;-50
2021/10/07 03:45:36;;;;;;;14.28;6.05;;;;;;;16.14;47.23;102824.16;1771383;80;21061;-51
2021/10/07 03:48:04;;;;;;;14.07;5.65;;;;;;;16.10;47.29;102814.15;1772447;80;21014;-51
2021/10/07 03:50:33;;;;;;;16.12;6.37;;;;;;;16.08;47.43;102819.86;1774376;80;20993;-54
2021/10/07 03:53:00;;;;;;;11.80;5.60;;;;;;;16.05;47.58;102819.88;1774384;80;20993;-51
2021/10/07 03:55:27;;;;;;;13.30;5.10;;;;;;;16.04;47.66;102810.28;1774648;80;21466;-48
2021/10/07 03:57:55;;;;;;;10.40;5.53;;;;;;;16.02;47.76;102816.00;1774134;80;21049;-50
2021/10/07 04:00:22;;;;;;;17.95;6.17;;;;;;;16.01;47.71;102816.02;1773155;80;21478;-50
2021/10/07 04:02:48;;;;;;;19.82;6.10;;;;;;;16.00;47.66;102819.09;1769126;80;21096;-51
2021/10/07 04:05:15;;;;;;;17.12;5.87;;;;;;;16.00;47.66;102816.46;1766898;80;21033;-53
2021/10/07 04:07:43;;;;;;;15.93;5.97;;;;;;;16.01;47.73;102812.93;1765667;80;21006;-47
2021/10/07 04:10:10;;;;;;;16.17;5.62;;;;;;;16.01;47.63;102811.62;1765980;80;21050;-53
2021/10/07 04:12:37;;;;;;;13.43;5.62;;;;;;;15.99;47.60;102804.20;1767875;80;20997;-50
2021/10/07 04:15:05;;;;;;;17.50;6.12;;;;;;;15.98;47.51;102814.30;1769240;80;20949;-47
2021/10/07 04:17:32;;;;;;;10.85;5.75;;;;;;;15.94;47.46;102817.84;1778904;80;21490;-50
2021/10/07 04:19:59;;;;;;;15.88;6.25;;;;;;;15.91;47.59;102811.30;1767010;80;21004;-47
2021/10/07 04:22:26;;;;;;;13.98;5.25;;;;;;;15.89;47.70;102810.91;1765718;80;20986;-48
2021/10/07 04:24:55;;;;;;;15.55;5.92;;;;;;;15.87;47.87;102820.09;1765961;80;21474;-49
2021/10/07 04:27:22;;;;;;;14.18;5.45;;;;;;;15.87;47.79;102826.66;1779962;80;20998;-50
2021/10/07 04:29:49;;;;;;;17.90;5.22;;;;;;;15.86;47.68;102827.56;1769209;80;20979;-52
2021/10/07 04:32:17;;;;;;;15.10;6.65;;;;;;;15.87;47.87;102831.03;1767309;80;21022;-50
2021/10/07 04:34:46;;;;;;;16.05;5.47;;;;;;;15.88;47.75;102838.04;1766719;80;21021;-50
2021/10/07 04:37:13;;;;;;;13.45;4.97;;;;;;;15.89;47.82;102843.27;1765803;80;20984;-52
2021/10/07 04:39:40;;;;;;;14.70;5.33;;;;;;;15.91;48.02;102844.12;1766162;80;20988;-50
2021/10/07 04:42:08;;;;;;;14.90;5.65;;;;;;;15.91;47.96;102853.31;1762119;80;21088;-50
2021/10/07 04:44:35;;;;;;;15.63;5.08;;;;;;;15.92;47.82;102850.25;1769282;80;20966;-50
2021/10/07 04:47:04;;;;;;;14.80;5.58;;;;;;;15.90;47.77;102851.59;1768944;80;21037;-47
2021/10/07 04:49:31;;;;;;;15.18;5.30;;;;;;;15.90;47.58;102851.59;1768999;80;20990;-50
2021/10/07 04:51:58;;;;;;;9.63;5.28;;;;;;;15.89;47.79;102851.14;1768940;80;21073;-50
2021/10/07 04:54:25;;;;;;;13.68;5.78;;;;;;;15.90;47.90;102852.90;1766460;80;21006;-47
2021/10/07 04:56:52;;;;;;;13.22;4.80;;;;;;;15.92;48.04;102853.75;1770208;80;21577;-50
2021/10/07 04:59:19;;;;;;;21.57;5.45;;;;;;;15.94;48.07;102855.91;1765811;80;21053;-50
2021/10/07 05:01:46;;;;;;;17.50;5.12;;;;;;;15.97;48.05;102858.49;1779043;80;21030;-51
2021/10/07 05:04:13;;;;;;;18.73;5.17;;;;;;;15.97;47.88;102854.55;1772801;80;21041;-47
2021/10/07 05:06:40;;;;;;;17.27;6.12;;;;;;;16.00;47.82;102867.67;1769149;80;21022;-50
2021/10/07 05:09:07;;;;;;;13.90;5.00;;;;;;;16.01;47.95;102855.41;1768973;80;20998;-47
2021/10/07 05:11:34;;;;;;;17.12;5.28;;;;;;;16.01;47.83;102872.02;1767408;80;21085;-50
2021/10/07 05:14:01;;;;;;;14.10;4.50;;;;;;;16.00;47.93;102867.67;1770231;80;21026;-50
2021/10/07 05:16:29;;;;;;;10.72;4.90;;;;;;;16.02;47.86;102862.39;1770595;80;21017;-52
2021/10/07 05:18:56;;;;;;;10.38;4.67;;;;;;;16.01;47.73;102854.95;1769104;80;20982;-51
2021/10/07 05:21:23;;;;;;;13.58;4.67;;;;;;;16.01;47.72;102861.52;1768944;80;20982;-50
2021/10/07 05:23:50;;;;;;;13.15;5.17;;;;;;;16.02;47.81;102861.08;1768977;80;21544;-47
2021/10/07 05:26:17;;;;;;;11.73;4.62;;;;;;;16.04;47.79;102864.55;1767072;80;21280;-50
2021/10/07 05:28:44;;;;;;;10.90;4.80;;;;;;;16.03;47.65;102860.20;1765743;80;21002;-48
2021/10/07 05:31:12;;;;;;;12.73;5.10;;;;;;;16.05;47.67;102861.05;1766331;80;21065;-53
2021/10/07 05:33:39;;;;;;;14.05;5.55;;;;;;;16.06;47.57;102864.97;1775832;80;21037;-51
2021/10/07 05:36:08;;;;;;;13.28;5.62;;;;;;;16.05;47.30;102867.16;1767024;80;21023;-51
2021/10/07 05:38:35;;;;;;;13.88;5.53;;;;;;;16.03;47.36;102871.55;1768493;80;21054;-48
2021/10/07 05:41:04;;;;;;;15.63;5.92;;;;;;;16.02;47.38;102875.08;1765927;80;21049;-49
2021/10/07 05:43:32;;;;;;;17.52;4.80;;;;;;;16.03;47.50;102875.49;1765662;80;21065;-50
2021/10/07 05:45:59;;;;;;;12.30;4.50;;;;;;;16.04;47.53;102868.06;1782834;80;21011;-50
2021/10/07 05:48:27;;;;;;;13.88;5.72;;;;;;;16.05;47.74;102878.97;1766894;80;21002;-47
2021/10/07 05:50:55;;;;;;;19.00;5.33;;;;;;;16.06;47.69;102884.67;1765801;80;21421;-50
2021/10/07 05:53:22;;;;;;;8.28;4.47;;;;;;;16.08;47.57;102878.95;1765784;80;21053;-49
2021/10/07 05:55:49;;;;;;;11.20;5.50;;;;;;;16.10;47.57;102887.69;1767879;80;21521;-51
2021/10/07 05:58:15;;;;;;;12.65;4.83;;;;;;;16.12;47.65;102888.54;1769195;80;20994;-49
2021/10/07 06:00:42;;;;;;;13.18;5.65;;;;;;;16.15;47.65;102891.14;1768940;80;21435;-52
2021/10/07 06:03:10;;;;;;;12.35;4.92;;;;;;;16.21;47.53;102886.26;1776080;80;21125;-48
2021/10/07 06:05:38;;;;;;;14.63;4.70;;;;;;;16.27;47.25;102879.18;1778618;80;21529;-48
2021/10/07 06:08:06;;;;;;;17.32;6.08;;;;;;;16.35;47.02;102880.83;1771486;80;21010;-50
2021/10/07 06:10:34;;;;;;;13.65;5.58;;;;;;;16.44;46.76;102884.23;1779922;80;21057;-50
2021/10/07 06:13:01;;;;;;;13.03;5.05;;;;;;;16.49;46.50;102885.47;1769261;80;21001;-52
2021/10/07 06:15:28;;;;;;;14.05;5.30;;;;;;;16.51;46.49;102883.72;1769969;80;21044;-51
2021/10/07 06:17:55;;;;;;;11.18;5.37;;;;;;;16.53;46.51;102880.63;1772440;80;21458;-49
2021/10/07 06:22:58;;;;;;;10.53;4.83;;;;;;;16.60;45.97;102888.88;1772852;80;21040;-48
2021/10/07 06:25:25;;;;;;;12.28;4.97;;;;;;;16.63;46.11;102889.70;1773046;80;21041;-52
2021/10/07 06:27:52;;;;;;;12.78;4.80;;;;;;;16.66;46.01;102884.41;1772917;80;21034;-49
2021/10/07 06:30:19;;;;;;;10.50;4.90;;;;;;;16.69;45.86;102886.98;1772085;80;21486;-49
2021/10/07 06:32:47;;;;;;;14.03;5.42;;;;;;;16.70;45.72;102885.23;1769940;80;21059;-53
2021/10/07 06:35:14;;;;;;;14.40;5.22;;;;;;;16.71;45.56;102878.63;1769845;80;21014;-48
2021/10/07 06:37:41;;;;;;;10.95;5.67;;;;;;;16.72;45.82;102885.64;1771502;80;21486;-51
2021/10/07 06:40:09;;;;;;;21.65;5.62;;;;;;;16.76;45.69;102885.15;1772162;80;21006;-48
2021/10/07 06:42:36;;;;;;;10.00;5.20;;;;;;;16.79;45.21;102883.81;1771026;80;21005;-50
2021/10/07 06:45:05;;;;;;;12.35;4.90;;;;;;;16.80;45.19;102882.46;1770054;80;21512;-48
2021/10/07 06:47:33;;;;;;;12.18;5.35;;;;;;;16.84;45.25;102875.39;1770124;80;20997;-50
2021/10/07 06:50:01;;;;;;;17.15;5.55;;;;;;;16.87;45.30;102889.83;1772180;80;21041;-50
2021/10/07 06:52:29;;;;;;;11.28;5.25;;;;;;;16.89;45.04;102876.21;1779223;80;21502;-50
2021/10/07 06:54:57;;;;;;;11.73;4.65;;;;;;;16.88;44.78;102890.23;1770995;80;21009;-51
2021/10/07 06:57:24;;;;;;;10.43;4.87;;;;;;;16.88;44.81;102883.22;1769027;80;21020;-48
2021/10/07 06:59:51;;;;;;;12.90;5.05;;;;;;;16.86;44.98;102881.50;1770320;80;21040;-53
2021/10/07 07:02:17;;;;;;;12.73;4.80;;;;;;;16.82;44.98;102874.55;1772364;80;21046;-52
2021/10/07 07:04:44;;;;;;;12.10;5.00;;;;;;;16.80;45.05;102871.95;1766294;80;21022;-48
2021/10/07 07:07:11;;;;;;;8.08;4.75;;;;;;;16.76;45.09;102874.20;1768871;80;21017;-51
2021/10/07 07:09:39;;;;;;;12.78;4.37;;;;;;;16.74;45.30;102875.10;1768945;80;21434;-51
2021/10/07 07:12:07;;;;;;;9.60;5.67;;;;;;;16.72;45.19;102876.44;1769222;80;21033;-50
2021/10/07 07:14:34;;;;;;;9.33;4.70;;;;;;;16.69;44.98;102880.88;1769158;80;21046;-51
2021/10/07 07:17:01;;;;;;;20.12;5.00;;;;;;;16.66;45.04;102878.28;1768556;80;21482;-50
2021/10/07 07:19:28;;;;;;;12.58;5.17;;;;;;;16.66;45.23;102883.54;1766022;80;21010;-51
2021/10/07 07:21:55;;;;;;;13.22;5.62;;;;;;;16.65;45.46;102885.29;1765735;80;21038;-51
2021/10/07 07:24:22;;;;;;;8.08;4.55;;;;;;;16.69;45.63;102895.34;1767724;80;21018;-50
2021/10/07 07:26:49;;;;;;;9.48;4.55;;;;;;;16.69;45.37;102886.98;1767709;80;21053;-50
2021/10/07 07:29:16;;;;;;;16.42;5.30;;;;;;;16.70;45.47;102895.75;1767128;80;20954;-51
2021/10/07 07:31:44;;;;;;;10.72;4.50;;;;;;;16.69;45.28;102897.50;1765492;80;21045;-54
2021/10/07 07:34:11;;;;;;;12.05;4.62;;;;;;;16.70;45.16;102901.89;1765933;80;20977;-48
2021/10/07 07:36:38;;;;;;;10.32;4.58;;;;;;;16.68;44.96;102900.16;1767876;80;20997;-49
2021/10/07 07:39:05;;;;;;;16.02;4.97;;;;;;;16.64;45.15;102903.72;1769065;80;20954;-49
2021/10/07 07:41:32;;;;;;;12.28;4.80;;;;;;;16.64;45.51;102895.39;1769268;80;20972;-50
2021/10/07 07:43:59;;;;;;;11.00;4.62;;;;;;;16.65;45.46;102898.91;1768938;80;21006;-52
2021/10/07 07:46:26;;;;;;;15.70;4.87;;;;;;;16.66;45.52;102894.05;1769697;80;21475;-53
2021/10/07 07:48:54;;;;;;;12.23;5.72;;;;;;;16.69;45.67;102900.60;1766372;80;21077;-51
2021/10/07 07:51:21;;;;;;;10.80;4.53;;;;;;;16.71;45.58;102902.77;1765953;80;21025;-50
2021/10/07 07:53:49;;;;;;;13.28;5.08;;;;;;;16.74;45.44;102902.70;1766785;80;21044;-49
2021/10/07 07:56:18;;;;;;;14.87;4.47;;;;;;;16.77;45.49;102904.00;1769827;80;21065;-51
2021/10/07 07:58:45;;;;;;;9.78;4.30;;;;;;;16.79;45.86;102906.16;1766530;80;21486;-51
2021/10/07 08:01:12;;;;;;;13.70;5.75;;;;;;;16.83;45.76;102907.85;1762463;80;21029;-53
2021/10/07 08:03:40;;;;;;;15.18;4.83;;;;;;;16.85;45.52;102895.55;1783291;80;21533;-52
2021/10/07 08:06:07;;;;;;;10.15;4.60;;;;;;;16.91;45.71;102892.84;1774073;80;20998;-48
2021/10/07 08:08:34;;;;;;;12.60;4.80;;;;;;;16.94;45.41;102896.28;1772204;80;21053;-52
2021/10/07 08:11:01;;;;;;;11.20;4.55;;;;;;;16.97;45.16;102898.89;1771755;80;21056;-51
2021/10/07 08:13:29;;;;;;;10.58;4.28;;;;;;;17.00;45.14;102900.61;1782335;80;21061;-48
2021/10/07 08:15:56;;;;;;;11.25;4.78;;;;;;;17.04;45.25;102905.78;1774450;80;21014;-50
2021/10/07 08:18:23;;;;;;;13.13;4.87;;;;;;;17.08;44.92;102902.68;1773605;80;21049;-51
2021/10/07 08:20:52;;;;;;;10.95;4.33;;;;;;;17.10;45.06;102900.89;1772511;80;21569;-49
2021/10/07 08:23:23;;;;;;;12.20;4.83;;;;;;;17.10;45.02;102907.47;1774766;80;21061;-50
2021/10/07 08:25:50;;;;;;;15.23;5.10;;;;;;;17.13;44.87;102903.46;1785248;80;21021;-48
2021/10/07 08:28:17;;;;;;;15.90;5.30;;;;;;;17.17;45.10;102901.64;1771121;80;21048;-49
2021/10/07 08:30:44;;;;;;;12.90;4.62;;;;;;;17.19;44.83;102903.38;1775717;80;21029;-48
2021/10/07 08:33:11;;;;;;;12.37;4.30;;;;;;;17.18;44.48;102905.59;1784272;80;21022;-47
2021/10/07 08:35:38;;;;;;;13.85;4.42;;;;;;;17.18;44.50;102901.65;1772749;80;20990;-48
2021/10/07 08:38:05;;;;;;;16.27;4.92;;;;;;;17.20;44.65;102905.56;1771234;80;21484;-53
2021/10/07 08:40:32;;;;;;;12.90;4.40;;;;;;;17.23;44.41;102902.42;1772186;80;21053;-48
2021/10/07 08:43:00;;;;;;;14.07;4.58;;;;;;;17.26;44.22;102906.34;1774194;80;21014;-50
2021/10/07 08:45:28;;;;;;;11.57;4.33;;;;;;;17.29;43.99;102908.91;1779740;80;21014;-50
2021/10/07 08:47:56;;;;;;;8.55;3.98;;;;;;;17.30;43.68;102902.77;1777557;80;20961;-49
2021/10/07 08:50:23;;;;;;;7.65;4.15;;;;;;;17.32;43.84;102909.31;1769718;80;21056;-48
2021/10/07 08:52:50;;;;;;;10.53;4.12;;;;;;;17.32;43.98;102897.03;1771576;80;21017;-48
2021/10/07 08:55:17;;;;;;;14.80;4.15;;;;;;;17.32;43.99;102904.93;1767312;80;21506;-48
2021/10/07 08:57:44;;;;;;;11.68;4.00;;;;;;;17.32;44.02;102908.88;1782182;80;21041;-50
2021/10/07 09:00:13;;;;;;;9.03;3.92;;;;;;;17.33;44.32;102907.97;1776327;80;21487;-50
2021/10/07 09:02:41;;;;;;;7.50;3.80;;;;;;;17.33;43.88;102911.91;1775713;80;21520;-49
2021/10/07 09:05:22;;;;;;;10.63;3.70;;;;;;;17.33;44.01;102915.86;1774386;80;21061;-51
2021/10/07 09:08:02;;;;;;;10.60;3.90;;;;;;;17.35;43.88;102918.49;1774690;80;20989;-51
2021/10/07 09:10:47;;;;;;;7.58;3.40;;;;;;;17.34;43.78;102914.98;1719326;83;21022;-51
2021/10/07 09:13:21;;;;;;;7.25;3.45;;;;;;;17.33;43.80;102909.28;1709058;83;21523;-53
2021/10/07 09:15:50;;;;;;;8.35;4.35;;;;;;;17.29;43.64;102911.55;1719519;83;21006;-48
2021/10/07 09:18:19;;;;;;;9.93;3.60;;;;;;;17.23;43.82;102914.73;1735364;82;21043;-48
2021/10/07 09:20:48;;;;;;;11.60;3.42;;;;;;;17.19;43.86;102912.58;1774533;80;20962;-50
2021/10/07 09:23:22;;;;;;;9.80;3.75;;;;;;;17.16;43.59;102911.33;1773877;80;20958;-48
2021/10/07 09:26:10;;;;;;;8.50;3.62;;;;;;;17.11;43.70;102909.19;1785269;80;21044;-50
2021/10/07 09:28:59;;;;;;;9.90;3.70;;;;;;;17.07;44.02;102915.39;1639757;87;21084;-47
2021/10/07 09:31:29;;;;;;;9.00;3.37;;;;;;;17.03;44.12;102917.64;1655280;85;21084;-51
2021/10/07 09:33:58;;;;;;;16.37;3.47;;;;;;;17.02;44.34;102925.97;1655582;87;21531;-48
2021/10/07 09:36:25;;;;;;;8.55;3.60;;;;;;;17.00;44.25;102932.17;1655395;87;21483;-47
2021/10/07 09:38:53;;;;;;;11.78;3.67;;;;;;;16.98;44.18;102932.64;1655607;87;21007;-49
2021/10/07 09:41:29;;;;;;;11.53;3.50;;;;;;;16.96;44.62;102935.73;1655473;87;21097;-51
2021/10/07 09:44:00;;;;;;;9.15;3.50;;;;;;;16.94;45.01;102926.96;1605850;88;21107;-46
2021/10/07 09:46:48;;;;;;;5.43;3.00;;;;;;;16.90;44.79;102927.90;1605666;89;21099;-49
2021/10/07 09:49:22;;;;;;;9.78;3.20;;;;;;;16.84;44.67;102936.75;1567664;91;21070;-50
2021/10/07 09:51:55;;;;;;;8.63;3.52;;;;;;;16.81;44.75;102946.45;1541092;92;21647;-50
2021/10/07 09:54:26;;;;;;;11.73;3.98;;;;;;;16.80;44.67;102950.83;1547879;92;21065;-50
2021/10/07 09:56:57;;;;;;;12.28;4.25;;;;;;;16.81;44.79;102941.19;1544744;92;21094;-50
2021/10/07 09:59:25;;;;;;;7.55;3.33;;;;;;;16.80;44.81;102942.06;1479594;96;21597;-50
2021/10/07 10:01:55;;;;;;;11.30;3.92;;;;;;;16.79;44.70;102941.66;1477895;96;21078;-50
2021/10/07 10:04:27;;;;;;;7.47;4.10;;;;;;;16.76;44.75;102937.30;1473588;96;21216;-51
2021/10/07 10:06:54;;;;;;;5.58;3.47;;;;;;;16.73;44.43;102938.63;1473763;96;21188;-49
2021/10/07 10:09:24;;;;;;;9.70;3.90;;;;;;;16.69;44.60;102936.09;1477988;96;21165;-50
2021/10/07 10:11:51;;;;;;;7.75;3.72;;;;;;;16.69;44.77;102938.72;1455209;98;21689;-51
2021/10/07 10:14:21;;;;;;;12.68;3.35;;;;;;;16.70;44.94;102937.81;1457820;96;21623;-49
2021/10/07 10:16:51;;;;;;;10.90;3.60;;;;;;;16.71;45.04;102936.47;1458050;98;21111;-52
2021/10/07 10:19:19;;;;;;;10.80;3.77;;;;;;;16.72;45.13;102925.52;1457636;98;21555;-48
2021/10/07 10:21:45;;;;;;;11.55;4.08;;;;;;;16.72;45.26;102926.39;1455950;98;21096;-50
2021/10/07 10:24:13;;;;;;;7.30;3.47;;;;;;;16.72;45.20;102925.08;1462207;96;21160;-52
2021/10/07 10:26:40;;;;;;;6.60;3.35;;;;;;;16.72;45.21;102921.57;1463822;97;21153;-50
2021/10/07 10:29:22;;;;;;;10.48;3.20;;;;;;;16.73;45.36;102922.02;1479719;95;21590;-50
2021/10/07 10:31:52;;;;;;;;;;;;;;;16.73;45.63;102912.81;1456211;98;21569;-49
2021/10/07 10:34:20;;;;;;;8.68;3.70;;;;;;;16.78;45.51;102913.60;1463568;98;20180;-47
2021/10/07 10:37:00;;;;;;;7.78;3.30;;;;;;;16.80;45.43;102923.66;1457926;98;21123;-47
2021/10/07 10:39:34;;;;;;;9.83;3.80;;;;;;;16.81;45.42;102922.34;1445397;98;21154;-49
2021/10/07 10:42:22;;;;;;;7.67;3.08;;;;;;;16.81;45.38;102918.84;1507096;94;21067;-47
2021/10/07 10:44:55;;;;;;;7.58;3.60;;;;;;;16.82;45.55;102919.25;1504582;94;21144;-48
2021/10/07 10:47:27;;;;;;;7.33;3.25;;;;;;;16.83;45.54;102907.85;1505875;94;21085;-50
2021/10/07 10:49:58;;;;;;;13.28;3.92;;;;;;;16.81;45.11;102895.17;1514788;94;21121;-50
2021/10/07 10:52:33;;;;;;;7.67;3.70;;;;;;;16.81;44.54;102901.31;1515336;93;21086;-49
2021/10/07 10:55:05;;;;;;;12.82;4.10;;;;;;;16.80;44.18;102899.55;1512337;90;21079;-49
2021/10/07 10:57:44;;;;;;;10.65;3.92;;;;;;;16.79;44.14;102898.27;1571825;91;21077;-48
2021/10/07 11:00:23;;;;;;;9.55;4.30;;;;;;;16.80;44.00;102899.55;1571685;91;21089;-49
2021/10/07 11:02:56;;;;;;;9.60;4.03;;;;;;;16.80;43.80;102902.62;1556277;92;21607;-46
2021/10/07 11:05:25;;;;;;;7.90;3.77;;;;;;;16.81;43.89;102903.06;1544103;91;21047;-49
2021/10/07 11:08:19;;;;;;;13.35;4.12;;;;;;;16.81;43.92;102893.86;1548377;91;21154;-49
2021/10/07 11:10:49;;;;;;;9.73;3.72;;;;;;;16.83;43.81;102887.70;1583628;89;21093;-47
2021/10/07 11:13:19;;;;;;;8.23;4.00;;;;;;;16.85;43.86;102879.78;1566708;90;21078;-46
2021/10/07 11:15:55;;;;;;;11.18;4.33;;;;;;;16.88;43.91;102887.61;1503665;93;21169;-48
2021/10/07 11:18:21;;;;;;;12.05;4.12;;;;;;;16.90;43.66;102891.08;1428476;99;21190;-47
2021/10/07 11:21:02;;;;;;;10.55;4.22;;;;;;;16.91;43.55;102890.20;1425381;99;21562;-49
2021/10/07 11:23:32;;;;;;;15.23;4.80;;;;;;;16.91;43.58;102888.45;1361183;105;21188;-49
2021/10/07 11:25:58;;;;;;;9.40;3.85;;;;;;;16.93;43.57;102886.67;1371970;102;21182;-49
2021/10/07 11:28:33;;;;;;;10.65;3.50;;;;;;;16.94;43.48;102886.20;1406362;102;21125;-46
2021/10/07 11:31:06;;;;;;;13.25;4.22;;;;;;;16.95;43.56;102878.75;1401912;102;21704;-47